PWSweather.com
Personal Weather Stations
Station Observations
ASHURSTBR1
New Forest, TottonGB SO40 7EA

New ForestTottonGB SO40 7EA

Lat: 50.9097024, Lon: -1.5111684999999397

Elevation: 27

Station Type: Davis VP2 Plus

Latest ConditionsUpdated 11:15:00 PM GMT Tuesday, Mar 26, 2019
Currently Today's Max Today's Min Today's Average
Temperature 37.2°F2.9°C 59.0°F15.0°C 28.2°F-2.1°C 43.3°F6.3°C
Dew Point 34.3°F1.3°C 41.4°F5.2°C 26.2°F-3.2°C 35.0°F1.7°C
Winds Calm Calm 4.0 mph -6.4 kmh - - 0.8 mph 1.3 kmh
Wind Gusts 1.0 mph1.6 kmh 11.0 mph17.7 kmh - -
Humidity 89% 96% 50% 75%
Pressure 30.52 in1033.5 mb 30.56 in1034.9 mb 30.46 in1031.5 mb -
Hour Temp Dew Point Humidity Winds Wind Gusts Pressure Precip Precip Rate Daily Precip Total
11:15 PM 37.2°F2.9°C 34.3°F1.3°C 89% Calm Calm 1.0 mph1.6 kmh 30.52 in1033.5 mb 0.00 in0.0 mm 0.00 in0.0 mm 0.00 in0.0 mm
11:00 PM 36.7°F2.6°C 33.8°F1.0°C 89% Calm Calm 1.0 mph1.6 kmh 30.52 in1033.5 mb 0.00 in0.0 mm 0.00 in0.0 mm 0.00 in0.0 mm
10:45 PM 36.7°F2.6°C 33.8°F1.0°C 89% Calm Calm -- 30.51 in1033.2 mb 0.00 in0.0 mm 0.00 in0.0 mm 0.00 in0.0 mm
10:30 PM 37.2°F2.9°C 34.0°F1.1°C 88% Calm Calm -- 30.51 in1033.2 mb 0.00 in0.0 mm 0.00 in0.0 mm 0.00 in0.0 mm
10:15 PM 37.3°F2.9°C 34.1°F1.2°C 88% Calm Calm -- 30.51 in1033.2 mb 0.00 in0.0 mm 0.00 in0.0 mm 0.00 in0.0 mm
10:00 PM 37.8°F3.2°C 34.3°F1.3°C 87% Calm Calm -- 30.51 in1033.2 mb 0.00 in0.0 mm 0.00 in0.0 mm 0.00 in0.0 mm
09:45 PM 38.0°F3.3°C 34.5°F1.4°C 87% Calm Calm -- 30.51 in1033.2 mb 0.00 in0.0 mm 0.00 in0.0 mm 0.00 in0.0 mm
09:30 PM 38.5°F3.6°C 34.7°F1.5°C 86% Calm Calm -- 30.51 in1033.2 mb 0.00 in0.0 mm 0.00 in0.0 mm 0.00 in0.0 mm
09:15 PM 39.0°F3.9°C 34.9°F1.6°C 85% Calm Calm -- 30.51 in1033.2 mb 0.00 in0.0 mm 0.00 in0.0 mm 0.00 in0.0 mm
09:00 PM 39.8°F4.3°C 35.4°F1.9°C 84% Calm Calm -- 30.51 in1033.2 mb 0.00 in0.0 mm 0.00 in0.0 mm 0.00 in0.0 mm
08:45 PM 40.7°F4.8°C 35.9°F2.2°C 83% Calm Calm -- 30.51 in1033.2 mb 0.00 in0.0 mm 0.00 in0.0 mm 0.00 in0.0 mm
08:30 PM 41.4°F5.2°C 36.6°F2.6°C 83% Calm Calm 2.0 mph3.2 kmh 30.51 in1033.2 mb 0.00 in0.0 mm 0.00 in0.0 mm 0.00 in0.0 mm
08:15 PM 41.7°F5.4°C 36.6°F2.6°C 82% Calm Calm -- 30.50 in1032.8 mb 0.00 in0.0 mm 0.00 in0.0 mm 0.00 in0.0 mm
08:00 PM 42.7°F5.9°C 37.3°F2.9°C 81% Calm Calm -- 30.50 in1032.8 mb 0.00 in0.0 mm 0.00 in0.0 mm 0.00 in0.0 mm
07:45 PM 43.6°F6.4°C 37.5°F3.1°C 79% Calm Calm -- 30.50 in1032.8 mb 0.00 in0.0 mm 0.00 in0.0 mm 0.00 in0.0 mm
07:30 PM 44.9°F7.2°C 38.5°F3.6°C 78% Calm Calm -- 30.50 in1032.8 mb 0.00 in0.0 mm 0.00 in0.0 mm 0.00 in0.0 mm
07:15 PM 46.6°F8.1°C 39.1°F3.9°C 75% Calm Calm -- 30.50 in1032.8 mb 0.00 in0.0 mm 0.00 in0.0 mm 0.00 in0.0 mm
07:00 PM 48.4°F9.1°C 39.4°F4.1°C 71% Calm Calm -- 30.50 in1032.8 mb 0.00 in0.0 mm 0.00 in0.0 mm 0.00 in0.0 mm
06:45 PM 50.3°F10.2°C 39.8°F4.3°C 67% Calm Calm -- 30.49 in1032.5 mb 0.00 in0.0 mm 0.00 in0.0 mm 0.00 in0.0 mm
06:30 PM 52.3°F11.3°C 40.1°F4.5°C 63% Calm Calm -- 30.48 in1032.2 mb 0.00 in0.0 mm 0.00 in0.0 mm 0.00 in0.0 mm
06:15 PM 53.6°F12.0°C 40.0°F4.4°C 60% Calm Calm 2.0 mph3.2 kmh 30.48 in1032.2 mb 0.00 in0.0 mm 0.00 in0.0 mm 0.00 in0.0 mm
06:00 PM 54.7°F12.6°C 40.2°F4.6°C 58% Calm Calm 4.0 mph6.4 kmh 30.48 in1032.2 mb 0.00 in0.0 mm 0.00 in0.0 mm 0.00 in0.0 mm
05:45 PM 55.4°F13.0°C 40.0°F4.4°C 56% 1.0 mph NNW1.6 kmh NNW 4.0 mph6.4 kmh 30.48 in1032.2 mb 0.00 in0.0 mm 0.00 in0.0 mm 0.00 in0.0 mm
05:30 PM 56.3°F13.5°C 40.3°F4.6°C 55% 1.0 mph N1.6 kmh N 4.0 mph6.4 kmh 30.47 in1031.8 mb 0.00 in0.0 mm 0.00 in0.0 mm 0.00 in0.0 mm
05:15 PM 57.1°F13.9°C 40.1°F4.5°C 53% 1.0 mph NW1.6 kmh NW 5.0 mph8.0 kmh 30.47 in1031.8 mb 0.00 in0.0 mm 0.00 in0.0 mm 0.00 in0.0 mm
05:00 PM 58.1°F14.5°C 40.1°F4.5°C 51% 1.0 mph NW1.6 kmh NW 4.0 mph6.4 kmh 30.47 in1031.8 mb 0.00 in0.0 mm 0.00 in0.0 mm 0.00 in0.0 mm
04:45 PM 58.2°F14.6°C 40.1°F4.5°C 51% 2.0 mph NW3.2 kmh NW 6.0 mph9.7 kmh 30.47 in1031.8 mb 0.00 in0.0 mm 0.00 in0.0 mm 0.00 in0.0 mm
04:30 PM 58.5°F14.7°C 39.9°F4.4°C 50% 3.0 mph NW4.8 kmh NW 10.0 mph16.1 kmh 30.47 in1031.8 mb 0.00 in0.0 mm 0.00 in0.0 mm 0.00 in0.0 mm
04:15 PM 59.0°F15.0°C 40.9°F4.9°C 51% 2.0 mph NW3.2 kmh NW 7.0 mph11.3 kmh 30.47 in1031.8 mb 0.00 in0.0 mm 0.00 in0.0 mm 0.00 in0.0 mm
04:00 PM 58.6°F14.8°C 40.5°F4.7°C 51% 3.0 mph NW4.8 kmh NW 8.0 mph12.9 kmh 30.46 in1031.5 mb 0.00 in0.0 mm 0.00 in0.0 mm 0.00 in0.0 mm
03:45 PM 58.7°F14.8°C 40.6°F4.8°C 51% 1.0 mph W1.6 kmh W 8.0 mph12.9 kmh 30.47 in1031.8 mb 0.00 in0.0 mm 0.00 in0.0 mm 0.00 in0.0 mm
03:30 PM 58.4°F14.7°C 40.3°F4.6°C 51% 2.0 mph NW3.2 kmh NW 10.0 mph16.1 kmh 30.47 in1031.8 mb 0.00 in0.0 mm 0.00 in0.0 mm 0.00 in0.0 mm
03:15 PM 59.0°F15.0°C 41.4°F5.2°C 52% 1.0 mph W1.6 kmh W 4.0 mph6.4 kmh 30.47 in1031.8 mb 0.00 in0.0 mm 0.00 in0.0 mm 0.00 in0.0 mm
03:00 PM 58.4°F14.7°C 41.3°F5.2°C 53% 3.0 mph W4.8 kmh W 9.0 mph14.5 kmh 30.48 in1032.2 mb 0.00 in0.0 mm 0.00 in0.0 mm 0.00 in0.0 mm
02:45 PM 58.6°F14.8°C 40.5°F4.7°C 51% 4.0 mph W6.4 kmh W 11.0 mph17.7 kmh 30.48 in1032.2 mb 0.00 in0.0 mm 0.00 in0.0 mm 0.00 in0.0 mm
02:30 PM 58.4°F14.7°C 40.3°F4.6°C 51% 3.0 mph NW4.8 kmh NW 9.0 mph14.5 kmh 30.48 in1032.2 mb 0.00 in0.0 mm 0.00 in0.0 mm 0.00 in0.0 mm
02:15 PM 58.7°F14.8°C 41.1°F5.1°C 52% 3.0 mph W4.8 kmh W 11.0 mph17.7 kmh 30.49 in1032.5 mb 0.00 in0.0 mm 0.00 in0.0 mm 0.00 in0.0 mm
02:00 PM 58.9°F14.9°C 40.8°F4.9°C 51% 3.0 mph WNW4.8 kmh WNW 9.0 mph14.5 kmh 30.50 in1032.8 mb 0.00 in0.0 mm 0.00 in0.0 mm 0.00 in0.0 mm
01:45 PM 57.7°F14.3°C 41.2°F5.1°C 54% 3.0 mph NNW4.8 kmh NNW 9.0 mph14.5 kmh 30.50 in1032.8 mb 0.00 in0.0 mm 0.00 in0.0 mm 0.00 in0.0 mm
01:30 PM 56.6°F13.7°C 39.2°F4.0°C 52% 2.0 mph WNW3.2 kmh WNW 9.0 mph14.5 kmh 30.51 in1033.2 mb 0.00 in0.0 mm 0.00 in0.0 mm 0.00 in0.0 mm
01:15 PM 56.1°F13.4°C 39.7°F4.3°C 54% 2.0 mph N3.2 kmh N 6.0 mph9.7 kmh 30.52 in1033.5 mb 0.00 in0.0 mm 0.00 in0.0 mm 0.00 in0.0 mm
01:00 PM 57.1°F13.9°C 40.1°F4.5°C 53% 3.0 mph W4.8 kmh W 8.0 mph12.9 kmh 30.52 in1033.5 mb 0.00 in0.0 mm 0.00 in0.0 mm 0.00 in0.0 mm
12:45 PM 56.8°F13.8°C 39.4°F4.1°C 52% 2.0 mph NW3.2 kmh NW 9.0 mph14.5 kmh 30.52 in1033.5 mb 0.00 in0.0 mm 0.00 in0.0 mm 0.00 in0.0 mm
12:30 PM 56.5°F13.6°C 39.6°F4.2°C 53% 2.0 mph N3.2 kmh N 6.0 mph9.7 kmh 30.52 in1033.5 mb 0.00 in0.0 mm 0.00 in0.0 mm 0.00 in0.0 mm
12:15 PM 55.3°F12.9°C 38.9°F3.8°C 54% 2.0 mph NW3.2 kmh NW 10.0 mph16.1 kmh 30.52 in1033.5 mb 0.00 in0.0 mm 0.00 in0.0 mm 0.00 in0.0 mm
12:00 PM 55.0°F12.8°C 39.1°F3.9°C 55% 3.0 mph W4.8 kmh W 10.0 mph16.1 kmh 30.53 in1033.9 mb 0.00 in0.0 mm 0.00 in0.0 mm 0.00 in0.0 mm
11:45 AM 54.5°F12.5°C 39.6°F4.2°C 57% 3.0 mph WNW4.8 kmh WNW 9.0 mph14.5 kmh 30.53 in1033.9 mb 0.00 in0.0 mm 0.00 in0.0 mm 0.00 in0.0 mm
11:30 AM 54.8°F12.7°C 39.8°F4.3°C 57% 3.0 mph NW4.8 kmh NW 10.0 mph16.1 kmh 30.54 in1034.2 mb 0.00 in0.0 mm 0.00 in0.0 mm 0.00 in0.0 mm
11:15 AM 54.8°F12.7°C 40.3°F4.6°C 58% 2.0 mph WNW3.2 kmh WNW 9.0 mph14.5 kmh 30.54 in1034.2 mb 0.00 in0.0 mm 0.00 in0.0 mm 0.00 in0.0 mm
11:00 AM 54.3°F12.4°C 39.8°F4.3°C 58% 3.0 mph NW4.8 kmh NW 11.0 mph17.7 kmh 30.54 in1034.2 mb 0.00 in0.0 mm 0.00 in0.0 mm 0.00 in0.0 mm
10:45 AM 54.0°F12.2°C 40.0°F4.4°C 59% 2.0 mph NNW3.2 kmh NNW 9.0 mph14.5 kmh 30.55 in1034.5 mb 0.00 in0.0 mm 0.00 in0.0 mm 0.00 in0.0 mm
10:30 AM 53.4°F11.9°C 40.7°F4.8°C 62% 2.0 mph WNW3.2 kmh WNW 7.0 mph11.3 kmh 30.55 in1034.5 mb 0.00 in0.0 mm 0.00 in0.0 mm 0.00 in0.0 mm
10:15 AM 52.8°F11.6°C 40.5°F4.7°C 63% 2.0 mph NW3.2 kmh NW 6.0 mph9.7 kmh 30.55 in1034.5 mb 0.00 in0.0 mm 0.00 in0.0 mm 0.00 in0.0 mm
10:00 AM 51.9°F11.1°C 40.1°F4.5°C 64% 2.0 mph NW3.2 kmh NW 8.0 mph12.9 kmh 30.55 in1034.5 mb 0.00 in0.0 mm 0.00 in0.0 mm 0.00 in0.0 mm
09:45 AM 50.5°F10.3°C 39.2°F4.0°C 65% 3.0 mph NNW4.8 kmh NNW 9.0 mph14.5 kmh 30.55 in1034.5 mb 0.00 in0.0 mm 0.00 in0.0 mm 0.00 in0.0 mm
09:30 AM 49.8°F9.9°C 38.9°F3.8°C 66% 2.0 mph N3.2 kmh N 9.0 mph14.5 kmh 30.55 in1034.5 mb 0.00 in0.0 mm 0.00 in0.0 mm 0.00 in0.0 mm
09:15 AM 49.0°F9.4°C 38.9°F3.8°C 68% Calm Calm 5.0 mph8.0 kmh 30.55 in1034.5 mb 0.00 in0.0 mm 0.00 in0.0 mm 0.00 in0.0 mm
09:00 AM 47.5°F8.6°C 39.3°F4.1°C 73% Calm Calm 3.0 mph4.8 kmh 30.56 in1034.9 mb 0.00 in0.0 mm 0.00 in0.0 mm 0.00 in0.0 mm
08:45 AM 45.0°F7.2°C 38.2°F3.4°C 77% Calm Calm 4.0 mph6.4 kmh 30.56 in1034.9 mb 0.00 in0.0 mm 0.00 in0.0 mm 0.00 in0.0 mm
08:30 AM 42.1°F5.6°C 37.9°F3.3°C 85% 1.0 mph NW1.6 kmh NW 3.0 mph4.8 kmh 30.56 in1034.9 mb 0.00 in0.0 mm 0.00 in0.0 mm 0.00 in0.0 mm
08:15 AM 39.5°F4.2°C 37.6°F3.1°C 93% Calm Calm -- 30.56 in1034.9 mb 0.00 in0.0 mm 0.00 in0.0 mm 0.00 in0.0 mm
08:00 AM 37.2°F2.9°C 36.2°F2.3°C 96% Calm Calm -- 30.56 in1034.9 mb 0.00 in0.0 mm 0.00 in0.0 mm 0.00 in0.0 mm
07:45 AM 34.9°F1.6°C 33.9°F1.1°C 96% Calm Calm 1.0 mph1.6 kmh 30.56 in1034.9 mb 0.00 in0.0 mm 0.00 in0.0 mm 0.00 in0.0 mm
07:30 AM 32.1°F0.1°C 30.8°F-0.7°C 95% Calm Calm -- 30.56 in1034.9 mb 0.00 in0.0 mm 0.00 in0.0 mm 0.00 in0.0 mm
07:15 AM 30.0°F-1.1°C 28.5°F-1.9°C 94% Calm Calm 1.0 mph1.6 kmh 30.56 in1034.9 mb 0.00 in0.0 mm 0.00 in0.0 mm 0.00 in0.0 mm
07:00 AM 29.0°F-1.7°C 27.2°F-2.7°C 93% Calm Calm -- 30.56 in1034.9 mb 0.00 in0.0 mm 0.00 in0.0 mm 0.00 in0.0 mm
06:45 AM 28.6°F-1.9°C 26.8°F-2.9°C 93% Calm Calm -- 30.55 in1034.5 mb 0.00 in0.0 mm 0.00 in0.0 mm 0.00 in0.0 mm
06:30 AM 28.2°F-2.1°C 26.4°F-3.1°C 93% Calm Calm -- 30.54 in1034.2 mb 0.00 in0.0 mm 0.00 in0.0 mm 0.00 in0.0 mm
06:15 AM 28.2°F-2.1°C 26.2°F-3.2°C 92% Calm Calm -- 30.54 in1034.2 mb 0.00 in0.0 mm 0.00 in0.0 mm 0.00 in0.0 mm
06:00 AM 28.5°F-1.9°C 26.5°F-3.1°C 92% Calm Calm -- 30.54 in1034.2 mb 0.00 in0.0 mm 0.00 in0.0 mm 0.00 in0.0 mm
05:45 AM 28.4°F-2.0°C 26.4°F-3.1°C 92% Calm Calm -- 30.54 in1034.2 mb 0.00 in0.0 mm 0.00 in0.0 mm 0.00 in0.0 mm
05:30 AM 28.6°F-1.9°C 26.6°F-3.0°C 92% Calm Calm -- 30.54 in1034.2 mb 0.00 in0.0 mm 0.00 in0.0 mm 0.00 in0.0 mm
05:15 AM 28.8°F-1.8°C 26.8°F-2.9°C 92% Calm Calm -- 30.54 in1034.2 mb 0.00 in0.0 mm 0.00 in0.0 mm 0.00 in0.0 mm
05:00 AM 28.7°F-1.8°C 26.7°F-2.9°C 92% Calm Calm -- 30.54 in1034.2 mb 0.00 in0.0 mm 0.00 in0.0 mm 0.00 in0.0 mm
04:45 AM 28.8°F-1.8°C 26.8°F-2.9°C 92% Calm Calm -- 30.54 in1034.2 mb 0.00 in0.0 mm 0.00 in0.0 mm 0.00 in0.0 mm
04:30 AM 28.9°F-1.7°C 26.9°F-2.8°C 92% Calm Calm -- 30.54 in1034.2 mb 0.00 in0.0 mm 0.00 in0.0 mm 0.00 in0.0 mm
04:15 AM 28.7°F-1.8°C 26.4°F-3.1°C 91% Calm Calm -- 30.54 in1034.2 mb 0.00 in0.0 mm 0.00 in0.0 mm 0.00 in0.0 mm
04:00 AM 29.0°F-1.7°C 26.7°F-2.9°C 91% Calm Calm -- 30.54 in1034.2 mb 0.00 in0.0 mm 0.00 in0.0 mm 0.00 in0.0 mm
03:45 AM 29.1°F-1.6°C 26.8°F-2.9°C 91% Calm Calm -- 30.54 in1034.2 mb 0.00 in0.0 mm 0.00 in0.0 mm 0.00 in0.0 mm
03:30 AM 29.3°F-1.5°C 27.0°F-2.8°C 91% Calm Calm -- 30.54 in1034.2 mb 0.00 in0.0 mm 0.00 in0.0 mm 0.00 in0.0 mm
03:15 AM 29.5°F-1.4°C 27.2°F-2.7°C 91% Calm Calm -- 30.54 in1034.2 mb 0.00 in0.0 mm 0.00 in0.0 mm 0.00 in0.0 mm
03:00 AM 29.9°F-1.2°C 27.6°F-2.4°C 91% Calm Calm 1.0 mph1.6 kmh 30.54 in1034.2 mb 0.00 in0.0 mm 0.00 in0.0 mm 0.00 in0.0 mm
02:45 AM 30.2°F-1.0°C 27.9°F-2.3°C 91% Calm Calm -- 30.54 in1034.2 mb 0.00 in0.0 mm 0.00 in0.0 mm 0.00 in0.0 mm
02:30 AM 30.2°F-1.0°C 27.9°F-2.3°C 91% Calm Calm -- 30.55 in1034.5 mb 0.00 in0.0 mm 0.00 in0.0 mm 0.00 in0.0 mm
02:15 AM 30.3°F-0.9°C 27.7°F-2.4°C 90% Calm Calm -- 30.55 in1034.5 mb 0.00 in0.0 mm 0.00 in0.0 mm 0.00 in0.0 mm
02:00 AM 30.4°F-0.9°C 27.8°F-2.3°C 90% Calm Calm -- 30.55 in1034.5 mb 0.00 in0.0 mm 0.00 in0.0 mm 0.00 in0.0 mm
01:45 AM 30.7°F-0.7°C 28.1°F-2.2°C 90% Calm Calm -- 30.55 in1034.5 mb 0.00 in0.0 mm 0.00 in0.0 mm 0.00 in0.0 mm
01:30 AM 31.0°F-0.6°C 28.4°F-2.0°C 90% Calm Calm -- 30.55 in1034.5 mb 0.00 in0.0 mm 0.00 in0.0 mm 0.00 in0.0 mm
01:15 AM 31.4°F-0.3°C 28.8°F-1.8°C 90% Calm Calm -- 30.55 in1034.5 mb 0.00 in0.0 mm 0.00 in0.0 mm 0.00 in0.0 mm
01:00 AM 31.5°F-0.3°C 28.6°F-1.9°C 89% Calm Calm -- 30.55 in1034.5 mb 0.00 in0.0 mm 0.00 in0.0 mm 0.00 in0.0 mm
12:45 AM 31.8°F-0.1°C 29.2°F-1.6°C 90% Calm Calm -- 30.55 in1034.5 mb 0.00 in0.0 mm 0.00 in0.0 mm 0.00 in0.0 mm
12:30 AM 32.2°F0.1°C 29.3°F-1.5°C 89% Calm Calm -- 30.55 in1034.5 mb 0.00 in0.0 mm 0.00 in0.0 mm 0.00 in0.0 mm
12:15 AM 32.8°F0.4°C 29.9°F-1.2°C 89% Calm Calm -- 30.55 in1034.5 mb 0.00 in0.0 mm 0.00 in0.0 mm 0.00 in0.0 mm
12:00 AM 32.9°F0.5°C 30.0°F-1.1°C 89% Calm Calm -- 30.55 in1034.5 mb 0.00 in0.0 mm 0.00 in0.0 mm 0.00 in0.0 mm